sensor_id;sensor_type;location;lat;lon;timestamp;P1;durP1;ratioP1;P2;durP2;ratioP2
12312;SDS011;6220;53.580;9.758;2022-08-03T00:02:18;4.60;;;4.17;;
12312;SDS011;6220;53.580;9.758;2022-08-03T00:04:43;5.30;;;4.00;;
12312;SDS011;6220;53.580;9.758;2022-08-03T00:07:09;4.43;;;4.00;;
12312;SDS011;6220;53.580;9.758;2022-08-03T00:09:34;4.20;;;3.70;;
12312;SDS011;6220;53.580;9.758;2022-08-03T00:11:59;4.40;;;4.00;;
12312;SDS011;6220;53.580;9.758;2022-08-03T00:14:25;4.43;;;4.03;;
12312;SDS011;6220;53.580;9.758;2022-08-03T00:16:50;6.77;;;3.80;;
12312;SDS011;6220;53.580;9.758;2022-08-03T00:19:15;4.53;;;3.97;;
12312;SDS011;6220;53.580;9.758;2022-08-03T00:21:41;4.63;;;4.10;;
12312;SDS011;6220;53.580;9.758;2022-08-03T00:24:06;4.57;;;3.97;;
12312;SDS011;6220;53.580;9.758;2022-08-03T00:26:31;4.40;;;4.00;;
12312;SDS011;6220;53.580;9.758;2022-08-03T00:28:57;5.37;;;3.70;;
12312;SDS011;6220;53.580;9.758;2022-08-03T00:31:22;4.60;;;4.20;;
12312;SDS011;6220;53.580;9.758;2022-08-03T00:33:47;5.57;;;3.93;;
12312;SDS011;6220;53.580;9.758;2022-08-03T00:36:13;3.93;;;3.63;;
12312;SDS011;6220;53.580;9.758;2022-08-03T00:38:38;4.20;;;3.80;;
12312;SDS011;6220;53.580;9.758;2022-08-03T00:41:03;5.13;;;3.93;;
12312;SDS011;6220;53.580;9.758;2022-08-03T00:43:29;4.90;;;3.97;;
12312;SDS011;6220;53.580;9.758;2022-08-03T00:45:54;7.20;;;4.30;;
12312;SDS011;6220;53.580;9.758;2022-08-03T00:48:21;4.87;;;3.77;;
12312;SDS011;6220;53.580;9.758;2022-08-03T00:50:46;4.23;;;3.60;;
12312;SDS011;6220;53.580;9.758;2022-08-03T00:53:12;7.17;;;3.87;;
12312;SDS011;6220;53.580;9.758;2022-08-03T00:55:38;4.50;;;4.10;;
12312;SDS011;6220;53.580;9.758;2022-08-03T00:58:04;4.13;;;3.73;;
12312;SDS011;6220;53.580;9.758;2022-08-03T01:00:30;4.17;;;3.77;;
12312;SDS011;6220;53.580;9.758;2022-08-03T01:02:56;6.97;;;4.10;;
12312;SDS011;6220;53.580;9.758;2022-08-03T01:05:22;4.27;;;3.87;;
12312;SDS011;6220;53.580;9.758;2022-08-03T01:13:29;5.10;;;4.60;;
12312;SDS011;6220;53.580;9.758;2022-08-03T01:16:05;6.33;;;4.20;;
12312;SDS011;6220;53.580;9.758;2022-08-03T01:18:54;5.10;;;4.60;;
12312;SDS011;6220;53.580;9.758;2022-08-03T01:21:30;4.43;;;4.03;;
12312;SDS011;6220;53.580;9.758;2022-08-03T01:26:26;5.20;;;4.70;;
12312;SDS011;6220;53.580;9.758;2022-08-03T01:29:27;4.93;;;4.53;;
12312;SDS011;6220;53.580;9.758;2022-08-03T01:32:02;7.33;;;4.57;;
12312;SDS011;6220;53.580;9.758;2022-08-03T01:34:33;5.10;;;4.60;;
12312;SDS011;6220;53.580;9.758;2022-08-03T01:37:02;4.67;;;4.27;;
12312;SDS011;6220;53.580;9.758;2022-08-03T01:39:30;4.80;;;4.30;;
12312;SDS011;6220;53.580;9.758;2022-08-03T01:41:57;4.57;;;4.17;;
12312;SDS011;6220;53.580;9.758;2022-08-03T01:44:30;4.77;;;4.00;;
12312;SDS011;6220;53.580;9.758;2022-08-03T01:46:59;5.60;;;4.40;;
12312;SDS011;6220;53.580;9.758;2022-08-03T01:49:26;5.00;;;4.37;;
12312;SDS011;6220;53.580;9.758;2022-08-03T01:51:52;5.13;;;4.27;;
12312;SDS011;6220;53.580;9.758;2022-08-03T01:54:18;5.77;;;4.10;;
12312;SDS011;6220;53.580;9.758;2022-08-03T01:56:44;5.20;;;4.70;;
12312;SDS011;6220;53.580;9.758;2022-08-03T01:59:10;4.87;;;4.30;;
12312;SDS011;6220;53.580;9.758;2022-08-03T02:01:36;5.33;;;4.87;;
12312;SDS011;6220;53.580;9.758;2022-08-03T02:04:02;6.57;;;5.00;;
12312;SDS011;6220;53.580;9.758;2022-08-03T02:06:29;5.57;;;4.30;;
12312;SDS011;6220;53.580;9.758;2022-08-03T02:08:56;5.23;;;4.83;;
12312;SDS011;6220;53.580;9.758;2022-08-03T02:11:23;5.70;;;5.10;;
12312;SDS011;6220;53.580;9.758;2022-08-03T02:13:49;5.00;;;4.60;;
12312;SDS011;6220;53.580;9.758;2022-08-03T02:16:15;4.70;;;4.20;;
12312;SDS011;6220;53.580;9.758;2022-08-03T02:18:41;4.90;;;4.50;;
12312;SDS011;6220;53.580;9.758;2022-08-03T02:21:07;6.40;;;5.00;;
12312;SDS011;6220;53.580;9.758;2022-08-03T02:23:35;6.57;;;4.67;;
12312;SDS011;6220;53.580;9.758;2022-08-03T02:26:02;4.93;;;4.53;;
12312;SDS011;6220;53.580;9.758;2022-08-03T02:28:33;5.03;;;4.60;;
12312;SDS011;6220;53.580;9.758;2022-08-03T02:31:02;4.80;;;4.40;;
12312;SDS011;6220;53.580;9.758;2022-08-03T02:33:31;6.47;;;4.20;;
12312;SDS011;6220;53.580;9.758;2022-08-03T02:35:58;6.50;;;4.80;;
12312;SDS011;6220;53.580;9.758;2022-08-03T02:38:27;5.23;;;4.73;;
12312;SDS011;6220;53.580;9.758;2022-08-03T02:40:58;4.97;;;4.53;;
12312;SDS011;6220;53.580;9.758;2022-08-03T02:43:25;7.00;;;4.53;;
12312;SDS011;6220;53.580;9.758;2022-08-03T02:45:52;5.00;;;4.60;;
12312;SDS011;6220;53.580;9.758;2022-08-03T02:48:19;4.53;;;4.10;;
12312;SDS011;6220;53.580;9.758;2022-08-03T02:50:47;5.30;;;4.80;;
12312;SDS011;6220;53.580;9.758;2022-08-03T02:53:14;7.17;;;5.63;;
12312;SDS011;6220;53.580;9.758;2022-08-03T02:55:42;5.37;;;4.87;;
12312;SDS011;6220;53.580;9.758;2022-08-03T02:58:09;5.70;;;4.57;;
12312;SDS011;6220;53.580;9.758;2022-08-03T03:00:35;6.10;;;4.80;;
12312;SDS011;6220;53.580;9.758;2022-08-03T03:03:01;8.47;;;5.40;;
12312;SDS011;6220;53.580;9.758;2022-08-03T03:05:28;5.90;;;5.40;;
12312;SDS011;6220;53.580;9.758;2022-08-03T03:07:54;5.73;;;5.13;;
12312;SDS011;6220;53.580;9.758;2022-08-03T03:10:23;5.43;;;4.73;;
12312;SDS011;6220;53.580;9.758;2022-08-03T03:12:49;5.30;;;4.80;;
12312;SDS011;6220;53.580;9.758;2022-08-03T03:15:16;5.97;;;5.37;;
12312;SDS011;6220;53.580;9.758;2022-08-03T03:17:41;8.37;;;5.00;;
12312;SDS011;6220;53.580;9.758;2022-08-03T03:20:07;6.43;;;5.03;;
12312;SDS011;6220;53.580;9.758;2022-08-03T03:22:34;5.33;;;4.83;;
12312;SDS011;6220;53.580;9.758;2022-08-03T03:25:00;7.23;;;5.20;;
12312;SDS011;6220;53.580;9.758;2022-08-03T03:27:25;5.80;;;5.20;;
12312;SDS011;6220;53.580;9.758;2022-08-03T03:29:51;6.47;;;5.37;;
12312;SDS011;6220;53.580;9.758;2022-08-03T03:32:16;8.03;;;4.97;;
12312;SDS011;6220;53.580;9.758;2022-08-03T03:34:42;5.07;;;4.60;;
12312;SDS011;6220;53.580;9.758;2022-08-03T03:37:07;5.50;;;5.03;;
12312;SDS011;6220;53.580;9.758;2022-08-03T03:39:33;10.53;;;5.40;;
12312;SDS011;6220;53.580;9.758;2022-08-03T03:42:00;5.87;;;4.60;;
12312;SDS011;6220;53.580;9.758;2022-08-03T03:44:26;5.93;;;5.33;;
12312;SDS011;6220;53.580;9.758;2022-08-03T03:46:53;6.50;;;5.23;;
12312;SDS011;6220;53.580;9.758;2022-08-03T03:49:19;6.00;;;5.50;;
12312;SDS011;6220;53.580;9.758;2022-08-03T03:51:45;5.63;;;5.13;;
12312;SDS011;6220;53.580;9.758;2022-08-03T03:54:10;5.33;;;4.83;;
12312;SDS011;6220;53.580;9.758;2022-08-03T03:56:35;5.43;;;4.90;;
12312;SDS011;6220;53.580;9.758;2022-08-03T03:59:01;6.57;;;5.20;;
12312;SDS011;6220;53.580;9.758;2022-08-03T04:01:26;7.43;;;5.50;;
12312;SDS011;6220;53.580;9.758;2022-08-03T04:03:52;7.27;;;5.13;;
12312;SDS011;6220;53.580;9.758;2022-08-03T04:06:18;5.80;;;5.23;;
12312;SDS011;6220;53.580;9.758;2022-08-03T04:09:01;5.80;;;5.30;;
12312;SDS011;6220;53.580;9.758;2022-08-03T04:11:52;6.87;;;5.27;;
12312;SDS011;6220;53.580;9.758;2022-08-03T04:16:46;5.57;;;5.07;;
12312;SDS011;6220;53.580;9.758;2022-08-03T04:19:18;5.33;;;4.83;;
12312;SDS011;6220;53.580;9.758;2022-08-03T04:21:49;6.50;;;5.37;;
12312;SDS011;6220;53.580;9.758;2022-08-03T04:24:16;7.20;;;5.67;;
12312;SDS011;6220;53.580;9.758;2022-08-03T04:26:42;7.47;;;5.07;;
12312;SDS011;6220;53.580;9.758;2022-08-03T04:29:09;5.73;;;5.23;;
12312;SDS011;6220;53.580;9.758;2022-08-03T04:31:36;5.87;;;5.27;;
12312;SDS011;6220;53.580;9.758;2022-08-03T04:34:02;5.83;;;5.33;;
12312;SDS011;6220;53.580;9.758;2022-08-03T04:36:29;6.17;;;5.57;;
12312;SDS011;6220;53.580;9.758;2022-08-03T04:41:25;5.50;;;5.07;;
12312;SDS011;6220;53.580;9.758;2022-08-03T04:43:53;7.40;;;5.77;;
12312;SDS011;6220;53.580;9.758;2022-08-03T04:46:19;6.00;;;5.40;;
12312;SDS011;6220;53.580;9.758;2022-08-03T04:48:47;6.00;;;5.50;;
12312;SDS011;6220;53.580;9.758;2022-08-03T04:51:12;5.40;;;5.00;;
12312;SDS011;6220;53.580;9.758;2022-08-03T04:53:38;5.93;;;5.33;;
12312;SDS011;6220;53.580;9.758;2022-08-03T04:56:04;6.43;;;5.30;;
12312;SDS011;6220;53.580;9.758;2022-08-03T04:58:30;7.10;;;5.83;;
12312;SDS011;6220;53.580;9.758;2022-08-03T05:00:55;6.67;;;6.07;;
12312;SDS011;6220;53.580;9.758;2022-08-03T05:03:21;6.37;;;5.63;;
12312;SDS011;6220;53.580;9.758;2022-08-03T05:05:46;6.97;;;5.97;;
12312;SDS011;6220;53.580;9.758;2022-08-03T05:08:11;7.03;;;5.93;;
12312;SDS011;6220;53.580;9.758;2022-08-03T05:10:37;6.20;;;5.70;;
12312;SDS011;6220;53.580;9.758;2022-08-03T05:13:02;6.73;;;6.03;;
12312;SDS011;6220;53.580;9.758;2022-08-03T05:15:28;7.20;;;5.77;;
12312;SDS011;6220;53.580;9.758;2022-08-03T05:17:53;7.00;;;5.87;;
12312;SDS011;6220;53.580;9.758;2022-08-03T05:20:18;6.53;;;5.50;;
12312;SDS011;6220;53.580;9.758;2022-08-03T05:22:44;6.80;;;6.10;;
12312;SDS011;6220;53.580;9.758;2022-08-03T05:25:09;6.10;;;5.53;;
12312;SDS011;6220;53.580;9.758;2022-08-03T05:27:35;7.53;;;6.00;;
12312;SDS011;6220;53.580;9.758;2022-08-03T05:30:00;7.13;;;6.43;;
12312;SDS011;6220;53.580;9.758;2022-08-03T05:32:26;8.33;;;6.63;;
12312;SDS011;6220;53.580;9.758;2022-08-03T05:34:51;6.00;;;5.30;;
12312;SDS011;6220;53.580;9.758;2022-08-03T05:37:17;6.97;;;5.63;;
12312;SDS011;6220;53.580;9.758;2022-08-03T05:39:42;6.70;;;5.77;;
12312;SDS011;6220;53.580;9.758;2022-08-03T05:42:07;7.07;;;5.60;;
12312;SDS011;6220;53.580;9.758;2022-08-03T05:44:34;9.17;;;5.80;;
12312;SDS011;6220;53.580;9.758;2022-08-03T05:47:02;6.53;;;5.93;;
12312;SDS011;6220;53.580;9.758;2022-08-03T05:49:28;6.40;;;5.80;;
12312;SDS011;6220;53.580;9.758;2022-08-03T05:51:53;6.90;;;6.20;;
12312;SDS011;6220;53.580;9.758;2022-08-03T05:54:18;6.03;;;5.50;;
12312;SDS011;6220;53.580;9.758;2022-08-03T05:56:44;5.90;;;5.37;;
12312;SDS011;6220;53.580;9.758;2022-08-03T05:59:09;5.60;;;5.10;;
12312;SDS011;6220;53.580;9.758;2022-08-03T06:01:34;6.53;;;5.80;;
12312;SDS011;6220;53.580;9.758;2022-08-03T06:04:00;5.80;;;5.30;;
12312;SDS011;6220;53.580;9.758;2022-08-03T06:06:25;9.10;;;5.43;;
12312;SDS011;6220;53.580;9.758;2022-08-03T06:08:50;7.07;;;4.90;;
12312;SDS011;6220;53.580;9.758;2022-08-03T06:11:16;5.43;;;4.93;;
12312;SDS011;6220;53.580;9.758;2022-08-03T06:13:42;6.90;;;5.03;;
12312;SDS011;6220;53.580;9.758;2022-08-03T06:16:07;8.70;;;5.13;;
12312;SDS011;6220;53.580;9.758;2022-08-03T06:18:33;6.90;;;5.40;;
12312;SDS011;6220;53.580;9.758;2022-08-03T06:20:58;5.93;;;5.37;;
12312;SDS011;6220;53.580;9.758;2022-08-03T06:23:24;5.93;;;5.43;;
12312;SDS011;6220;53.580;9.758;2022-08-03T06:25:49;6.57;;;5.77;;
12312;SDS011;6220;53.580;9.758;2022-08-03T06:28:15;7.73;;;5.63;;
12312;SDS011;6220;53.580;9.758;2022-08-03T06:30:42;7.07;;;5.07;;
12312;SDS011;6220;53.580;9.758;2022-08-03T06:33:07;5.47;;;4.97;;
12312;SDS011;6220;53.580;9.758;2022-08-03T06:35:33;6.07;;;5.47;;
12312;SDS011;6220;53.580;9.758;2022-08-03T06:37:58;6.40;;;4.73;;
12312;SDS011;6220;53.580;9.758;2022-08-03T06:40:24;7.63;;;4.80;;
12312;SDS011;6220;53.580;9.758;2022-08-03T06:42:56;5.60;;;5.10;;
12312;SDS011;6220;53.580;9.758;2022-08-03T06:45:23;5.30;;;4.10;;
12312;SDS011;6220;53.580;9.758;2022-08-03T06:47:58;6.57;;;5.13;;
12312;SDS011;6220;53.580;9.758;2022-08-03T06:50:28;6.13;;;4.30;;
12312;SDS011;6220;53.580;9.758;2022-08-03T06:52:53;6.83;;;4.80;;
12312;SDS011;6220;53.580;9.758;2022-08-03T06:55:19;6.03;;;4.40;;
12312;SDS011;6220;53.580;9.758;2022-08-03T06:57:44;5.60;;;4.53;;
12312;SDS011;6220;53.580;9.758;2022-08-03T07:00:09;7.23;;;4.70;;
12312;SDS011;6220;53.580;9.758;2022-08-03T07:02:36;7.77;;;4.57;;
12312;SDS011;6220;53.580;9.758;2022-08-03T07:05:01;6.33;;;4.37;;
12312;SDS011;6220;53.580;9.758;2022-08-03T07:07:26;5.50;;;4.93;;
12312;SDS011;6220;53.580;9.758;2022-08-03T07:09:52;7.50;;;4.60;;
12312;SDS011;6220;53.580;9.758;2022-08-03T07:12:17;6.33;;;4.03;;
12312;SDS011;6220;53.580;9.758;2022-08-03T07:14:42;5.33;;;4.17;;
12312;SDS011;6220;53.580;9.758;2022-08-03T07:17:08;4.83;;;4.10;;
12312;SDS011;6220;53.580;9.758;2022-08-03T07:19:33;3.90;;;3.50;;
12312;SDS011;6220;53.580;9.758;2022-08-03T07:21:58;5.37;;;4.33;;
12312;SDS011;6220;53.580;9.758;2022-08-03T07:24:24;4.73;;;4.23;;
12312;SDS011;6220;53.580;9.758;2022-08-03T07:26:49;5.83;;;4.17;;
12312;SDS011;6220;53.580;9.758;2022-08-03T07:29:14;7.60;;;4.37;;
12312;SDS011;6220;53.580;9.758;2022-08-03T07:31:40;4.17;;;3.77;;
12312;SDS011;6220;53.580;9.758;2022-08-03T07:34:06;4.50;;;3.80;;
12312;SDS011;6220;53.580;9.758;2022-08-03T07:36:31;5.20;;;3.60;;
12312;SDS011;6220;53.580;9.758;2022-08-03T07:38:56;5.57;;;3.60;;
12312;SDS011;6220;53.580;9.758;2022-08-03T07:41:22;3.90;;;3.50;;
12312;SDS011;6220;53.580;9.758;2022-08-03T07:43:47;4.13;;;3.77;;
12312;SDS011;6220;53.580;9.758;2022-08-03T07:46:13;4.57;;;4.17;;
12312;SDS011;6220;53.580;9.758;2022-08-03T07:48:39;5.30;;;3.50;;
12312;SDS011;6220;53.580;9.758;2022-08-03T07:51:04;4.57;;;3.47;;
12312;SDS011;6220;53.580;9.758;2022-08-03T07:53:29;5.13;;;3.10;;
12312;SDS011;6220;53.580;9.758;2022-08-03T07:55:55;4.70;;;3.43;;
12312;SDS011;6220;53.580;9.758;2022-08-03T07:58:21;3.43;;;3.13;;
12312;SDS011;6220;53.580;9.758;2022-08-03T08:00:47;5.97;;;3.80;;
12312;SDS011;6220;53.580;9.758;2022-08-03T08:03:14;4.20;;;2.97;;
12312;SDS011;6220;53.580;9.758;2022-08-03T08:05:40;5.83;;;3.20;;
12312;SDS011;6220;53.580;9.758;2022-08-03T08:08:05;4.67;;;3.00;;
12312;SDS011;6220;53.580;9.758;2022-08-03T08:10:31;4.00;;;2.90;;
12312;SDS011;6220;53.580;9.758;2022-08-03T08:12:57;4.20;;;2.70;;
12312;SDS011;6220;53.580;9.758;2022-08-03T08:15:23;4.87;;;3.00;;
12312;SDS011;6220;53.580;9.758;2022-08-03T08:17:50;8.13;;;2.63;;
12312;SDS011;6220;53.580;9.758;2022-08-03T08:20:19;5.00;;;3.10;;
12312;SDS011;6220;53.580;9.758;2022-08-03T08:22:46;3.47;;;3.17;;
12312;SDS011;6220;53.580;9.758;2022-08-03T08:25:11;4.53;;;2.87;;
12312;SDS011;6220;53.580;9.758;2022-08-03T08:27:44;3.97;;;3.00;;
12312;SDS011;6220;53.580;9.758;2022-08-03T08:30:12;5.63;;;2.70;;
12312;SDS011;6220;53.580;9.758;2022-08-03T08:32:38;3.37;;;2.60;;
12312;SDS011;6220;53.580;9.758;2022-08-03T08:35:05;4.50;;;2.83;;
12312;SDS011;6220;53.580;9.758;2022-08-03T08:37:31;4.93;;;2.60;;
12312;SDS011;6220;53.580;9.758;2022-08-03T08:39:56;3.50;;;2.40;;
12312;SDS011;6220;53.580;9.758;2022-08-03T08:42:22;4.40;;;2.87;;
12312;SDS011;6220;53.580;9.758;2022-08-03T08:44:49;2.97;;;2.60;;
12312;SDS011;6220;53.580;9.758;2022-08-03T08:47:14;4.40;;;2.70;;
12312;SDS011;6220;53.580;9.758;2022-08-03T08:49:40;4.10;;;2.67;;
12312;SDS011;6220;53.580;9.758;2022-08-03T08:52:06;6.67;;;2.47;;
12312;SDS011;6220;53.580;9.758;2022-08-03T08:54:32;6.57;;;2.70;;
12312;SDS011;6220;53.580;9.758;2022-08-03T08:57:01;3.50;;;2.50;;
12312;SDS011;6220;53.580;9.758;2022-08-03T08:59:27;4.70;;;2.37;;
12312;SDS011;6220;53.580;9.758;2022-08-03T09:01:55;7.63;;;2.60;;
12312;SDS011;6220;53.580;9.758;2022-08-03T09:04:22;6.97;;;2.50;;
12312;SDS011;6220;53.580;9.758;2022-08-03T09:06:47;5.10;;;2.33;;
12312;SDS011;6220;53.580;9.758;2022-08-03T09:09:12;3.27;;;2.23;;
12312;SDS011;6220;53.580;9.758;2022-08-03T09:11:41;4.80;;;2.37;;
12312;SDS011;6220;53.580;9.758;2022-08-03T09:14:07;4.27;;;2.40;;
12312;SDS011;6220;53.580;9.758;2022-08-03T09:16:33;8.30;;;2.70;;
12312;SDS011;6220;53.580;9.758;2022-08-03T09:19:03;3.20;;;2.47;;
12312;SDS011;6220;53.580;9.758;2022-08-03T09:21:36;5.47;;;2.43;;
12312;SDS011;6220;53.580;9.758;2022-08-03T09:24:02;3.83;;;2.37;;
12312;SDS011;6220;53.580;9.758;2022-08-03T09:26:29;5.20;;;2.70;;
12312;SDS011;6220;53.580;9.758;2022-08-03T09:28:58;5.47;;;2.40;;
12312;SDS011;6220;53.580;9.758;2022-08-03T09:34:06;4.63;;;2.53;;
12312;SDS011;6220;53.580;9.758;2022-08-03T09:36:37;5.77;;;2.80;;
12312;SDS011;6220;53.580;9.758;2022-08-03T09:39:10;4.10;;;2.27;;
12312;SDS011;6220;53.580;9.758;2022-08-03T09:41:38;6.13;;;2.60;;
12312;SDS011;6220;53.580;9.758;2022-08-03T09:44:03;5.43;;;2.53;;
12312;SDS011;6220;53.580;9.758;2022-08-03T09:46:29;3.73;;;2.33;;
12312;SDS011;6220;53.580;9.758;2022-08-03T09:49:08;3.43;;;2.23;;
12312;SDS011;6220;53.580;9.758;2022-08-03T09:51:35;4.00;;;2.30;;
12312;SDS011;6220;53.580;9.758;2022-08-03T09:54:00;5.63;;;2.27;;
12312;SDS011;6220;53.580;9.758;2022-08-03T09:56:41;11.13;;;2.77;;
12312;SDS011;6220;53.580;9.758;2022-08-03T09:59:11;6.03;;;2.23;;
12312;SDS011;6220;53.580;9.758;2022-08-03T10:01:38;4.00;;;2.17;;
12312;SDS011;6220;53.580;9.758;2022-08-03T10:04:10;7.07;;;2.40;;
12312;SDS011;6220;53.580;9.758;2022-08-03T10:06:38;4.20;;;2.20;;
12312;SDS011;6220;53.580;9.758;2022-08-03T10:09:13;5.40;;;2.20;;
12312;SDS011;6220;53.580;9.758;2022-08-03T10:11:40;6.72;;;2.08;;
12312;SDS011;6220;53.580;9.758;2022-08-03T10:14:07;6.38;;;2.28;;
12312;SDS011;6220;53.580;9.758;2022-08-03T10:16:35;5.80;;;1.97;;
12312;SDS011;6220;53.580;9.758;2022-08-03T10:19:03;4.53;;;2.13;;
12312;SDS011;6220;53.580;9.758;2022-08-03T10:21:48;4.97;;;2.10;;
12312;SDS011;6220;53.580;9.758;2022-08-03T10:24:16;6.23;;;2.30;;
12312;SDS011;6220;53.580;9.758;2022-08-03T10:26:43;6.27;;;2.53;;
12312;SDS011;6220;53.580;9.758;2022-08-03T10:29:11;5.10;;;2.10;;
12312;SDS011;6220;53.580;9.758;2022-08-03T10:31:37;3.72;;;2.00;;
12312;SDS011;6220;53.580;9.758;2022-08-03T10:34:05;4.80;;;2.17;;
12312;SDS011;6220;53.580;9.758;2022-08-03T10:36:33;5.90;;;2.60;;
12312;SDS011;6220;53.580;9.758;2022-08-03T10:38:59;4.53;;;2.10;;
12312;SDS011;6220;53.580;9.758;2022-08-03T10:41:25;6.30;;;2.67;;
12312;SDS011;6220;53.580;9.758;2022-08-03T10:44:17;5.17;;;2.17;;
12312;SDS011;6220;53.580;9.758;2022-08-03T10:46:42;3.00;;;2.10;;
12312;SDS011;6220;53.580;9.758;2022-08-03T10:49:12;8.73;;;2.10;;
12312;SDS011;6220;53.580;9.758;2022-08-03T10:51:39;5.85;;;2.10;;
12312;SDS011;6220;53.580;9.758;2022-08-03T10:54:05;4.23;;;2.20;;
12312;SDS011;6220;53.580;9.758;2022-08-03T10:59:14;5.55;;;2.10;;
12312;SDS011;6220;53.580;9.758;2022-08-03T11:01:53;5.78;;;1.90;;
12312;SDS011;6220;53.580;9.758;2022-08-03T11:04:20;4.03;;;2.07;;
12312;SDS011;6220;53.580;9.758;2022-08-03T11:06:54;9.77;;;2.53;;
12312;SDS011;6220;53.580;9.758;2022-08-03T11:09:50;3.97;;;2.08;;
12312;SDS011;6220;53.580;9.758;2022-08-03T11:12:23;4.10;;;1.90;;
12312;SDS011;6220;53.580;9.758;2022-08-03T11:14:49;4.90;;;2.20;;
12312;SDS011;6220;53.580;9.758;2022-08-03T11:17:14;5.20;;;2.33;;
12312;SDS011;6220;53.580;9.758;2022-08-03T11:19:44;6.82;;;2.28;;
12312;SDS011;6220;53.580;9.758;2022-08-03T11:22:10;5.85;;;1.95;;
12312;SDS011;6220;53.580;9.758;2022-08-03T11:27:23;3.55;;;1.90;;
12312;SDS011;6220;53.580;9.758;2022-08-03T11:35:11;7.50;;;2.63;;
12312;SDS011;6220;53.580;9.758;2022-08-03T11:43:04;6.13;;;2.35;;
12312;SDS011;6220;53.580;9.758;2022-08-03T11:48:34;8.90;;;2.30;;
12312;SDS011;6220;53.580;9.758;2022-08-03T11:51:05;5.70;;;2.08;;
12312;SDS011;6220;53.580;9.758;2022-08-03T11:53:32;4.72;;;2.33;;
12312;SDS011;6220;53.580;9.758;2022-08-03T11:55:58;4.43;;;2.15;;
12312;SDS011;6220;53.580;9.758;2022-08-03T11:58:25;5.05;;;2.28;;
12312;SDS011;6220;53.580;9.758;2022-08-03T12:00:50;5.05;;;1.88;;
12312;SDS011;6220;53.580;9.758;2022-08-03T12:03:17;9.07;;;2.55;;
12312;SDS011;6220;53.580;9.758;2022-08-03T12:05:44;4.50;;;2.40;;
12312;SDS011;6220;53.580;9.758;2022-08-03T12:08:14;4.78;;;2.22;;
12312;SDS011;6220;53.580;9.758;2022-08-03T12:10:45;9.57;;;2.70;;
12312;SDS011;6220;53.580;9.758;2022-08-03T12:13:11;6.60;;;2.15;;
12312;SDS011;6220;53.580;9.758;2022-08-03T12:15:37;5.88;;;2.50;;
12312;SDS011;6220;53.580;9.758;2022-08-03T12:18:03;7.80;;;2.30;;
12312;SDS011;6220;53.580;9.758;2022-08-03T12:20:36;3.55;;;1.80;;
12312;SDS011;6220;53.580;9.758;2022-08-03T12:23:02;5.80;;;2.50;;
12312;SDS011;6220;53.580;9.758;2022-08-03T12:25:29;6.93;;;2.20;;
12312;SDS011;6220;53.580;9.758;2022-08-03T12:28:05;6.20;;;2.17;;
12312;SDS011;6220;53.580;9.758;2022-08-03T12:30:40;6.30;;;2.60;;
12312;SDS011;6220;53.580;9.758;2022-08-03T12:35:50;4.22;;;2.30;;
12312;SDS011;6220;53.580;9.758;2022-08-03T12:38:27;5.15;;;2.10;;
12312;SDS011;6220;53.580;9.758;2022-08-03T12:41:00;7.32;;;2.05;;
12312;SDS011;6220;53.580;9.758;2022-08-03T12:43:30;9.10;;;3.45;;
12312;SDS011;6220;53.580;9.758;2022-08-03T12:46:10;5.88;;;2.03;;
12312;SDS011;6220;53.580;9.758;2022-08-03T12:48:56;7.53;;;2.25;;
12312;SDS011;6220;53.580;9.758;2022-08-03T12:54:20;6.55;;;2.28;;
12312;SDS011;6220;53.580;9.758;2022-08-03T12:59:25;6.60;;;2.40;;
12312;SDS011;6220;53.580;9.758;2022-08-03T13:01:51;5.45;;;2.40;;
12312;SDS011;6220;53.580;9.758;2022-08-03T13:04:27;8.13;;;2.30;;
12312;SDS011;6220;53.580;9.758;2022-08-03T13:06:57;5.55;;;2.25;;
12312;SDS011;6220;53.580;9.758;2022-08-03T13:09:29;12.50;;;3.10;;
12312;SDS011;6220;53.580;9.758;2022-08-03T13:12:04;8.93;;;2.50;;
12312;SDS011;6220;53.580;9.758;2022-08-03T13:14:34;5.53;;;2.20;;
12312;SDS011;6220;53.580;9.758;2022-08-03T13:16:59;7.05;;;2.10;;
12312;SDS011;6220;53.580;9.758;2022-08-03T13:19:24;9.85;;;2.50;;
12312;SDS011;6220;53.580;9.758;2022-08-03T13:21:50;4.40;;;2.13;;
12312;SDS011;6220;53.580;9.758;2022-08-03T13:24:15;5.97;;;2.35;;
12312;SDS011;6220;53.580;9.758;2022-08-03T13:26:40;3.38;;;2.15;;
12312;SDS011;6220;53.580;9.758;2022-08-03T13:29:06;8.25;;;2.05;;
12312;SDS011;6220;53.580;9.758;2022-08-03T13:31:31;5.10;;;2.15;;
12312;SDS011;6220;53.580;9.758;2022-08-03T13:33:56;7.93;;;2.42;;
12312;SDS011;6220;53.580;9.758;2022-08-03T13:36:22;8.55;;;2.20;;
12312;SDS011;6220;53.580;9.758;2022-08-03T13:38:48;6.60;;;1.92;;
12312;SDS011;6220;53.580;9.758;2022-08-03T13:41:15;5.03;;;2.22;;
12312;SDS011;6220;53.580;9.758;2022-08-03T13:43:40;4.85;;;2.40;;
12312;SDS011;6220;53.580;9.758;2022-08-03T13:46:06;8.65;;;2.60;;
12312;SDS011;6220;53.580;9.758;2022-08-03T13:48:31;8.00;;;2.30;;
12312;SDS011;6220;53.580;9.758;2022-08-03T13:50:56;6.97;;;2.40;;
12312;SDS011;6220;53.580;9.758;2022-08-03T13:53:22;3.40;;;1.95;;
12312;SDS011;6220;53.580;9.758;2022-08-03T13:55:47;5.20;;;2.30;;
12312;SDS011;6220;53.580;9.758;2022-08-03T13:58:13;4.63;;;2.55;;
12312;SDS011;6220;53.580;9.758;2022-08-03T14:00:38;5.50;;;1.83;;
12312;SDS011;6220;53.580;9.758;2022-08-03T14:03:04;8.23;;;2.08;;
12312;SDS011;6220;53.580;9.758;2022-08-03T14:05:29;5.45;;;1.90;;
12312;SDS011;6220;53.580;9.758;2022-08-03T14:07:55;6.18;;;2.10;;
12312;SDS011;6220;53.580;9.758;2022-08-03T14:10:21;3.60;;;2.28;;
12312;SDS011;6220;53.580;9.758;2022-08-03T14:12:48;6.53;;;2.22;;
12312;SDS011;6220;53.580;9.758;2022-08-03T14:15:13;6.25;;;2.13;;
12312;SDS011;6220;53.580;9.758;2022-08-03T14:17:39;6.18;;;2.20;;
12312;SDS011;6220;53.580;9.758;2022-08-03T14:20:05;4.28;;;2.33;;
12312;SDS011;6220;53.580;9.758;2022-08-03T14:22:32;8.00;;;2.60;;
12312;SDS011;6220;53.580;9.758;2022-08-03T14:24:57;7.95;;;3.10;;
12312;SDS011;6220;53.580;9.758;2022-08-03T14:27:22;4.20;;;2.50;;
12312;SDS011;6220;53.580;9.758;2022-08-03T14:29:48;3.75;;;2.20;;
12312;SDS011;6220;53.580;9.758;2022-08-03T14:32:13;5.03;;;2.15;;
12312;SDS011;6220;53.580;9.758;2022-08-03T14:34:38;4.78;;;2.10;;
12312;SDS011;6220;53.580;9.758;2022-08-03T14:37:04;3.80;;;2.10;;
12312;SDS011;6220;53.580;9.758;2022-08-03T14:39:29;6.30;;;2.38;;
12312;SDS011;6220;53.580;9.758;2022-08-03T14:41:55;6.78;;;2.30;;
12312;SDS011;6220;53.580;9.758;2022-08-03T14:44:20;4.13;;;2.15;;
12312;SDS011;6220;53.580;9.758;2022-08-03T14:46:45;5.13;;;2.42;;
12312;SDS011;6220;53.580;9.758;2022-08-03T14:49:11;5.25;;;2.67;;
12312;SDS011;6220;53.580;9.758;2022-08-03T14:51:36;5.50;;;3.53;;
12312;SDS011;6220;53.580;9.758;2022-08-03T14:54:01;7.53;;;2.40;;
12312;SDS011;6220;53.580;9.758;2022-08-03T14:56:27;4.75;;;2.22;;
12312;SDS011;6220;53.580;9.758;2022-08-03T14:58:52;5.65;;;2.35;;
12312;SDS011;6220;53.580;9.758;2022-08-03T15:01:17;5.43;;;2.10;;
12312;SDS011;6220;53.580;9.758;2022-08-03T15:03:43;8.75;;;2.95;;
12312;SDS011;6220;53.580;9.758;2022-08-03T15:06:10;4.55;;;2.35;;
12312;SDS011;6220;53.580;9.758;2022-08-03T15:08:36;5.20;;;2.22;;
12312;SDS011;6220;53.580;9.758;2022-08-03T15:11:01;5.85;;;2.17;;
12312;SDS011;6220;53.580;9.758;2022-08-03T15:13:27;5.40;;;2.30;;
12312;SDS011;6220;53.580;9.758;2022-08-03T15:15:52;5.68;;;2.10;;
12312;SDS011;6220;53.580;9.758;2022-08-03T15:18:18;5.10;;;2.60;;
12312;SDS011;6220;53.580;9.758;2022-08-03T15:20:44;7.03;;;2.38;;
12312;SDS011;6220;53.580;9.758;2022-08-03T15:23:09;9.80;;;2.33;;
12312;SDS011;6220;53.580;9.758;2022-08-03T15:25:34;6.30;;;3.22;;
12312;SDS011;6220;53.580;9.758;2022-08-03T15:28:00;9.02;;;2.58;;
12312;SDS011;6220;53.580;9.758;2022-08-03T15:30:25;5.85;;;2.42;;
12312;SDS011;6220;53.580;9.758;2022-08-03T15:32:50;4.90;;;2.20;;
12312;SDS011;6220;53.580;9.758;2022-08-03T15:35:16;7.10;;;2.50;;
12312;SDS011;6220;53.580;9.758;2022-08-03T15:37:41;6.10;;;2.05;;
12312;SDS011;6220;53.580;9.758;2022-08-03T15:40:06;3.38;;;2.10;;
12312;SDS011;6220;53.580;9.758;2022-08-03T15:42:33;4.18;;;2.10;;
12312;SDS011;6220;53.580;9.758;2022-08-03T15:44:58;6.30;;;1.98;;